createdAt,value
2024-02-24T00:00:44.464Z,23.6
2024-02-24T00:06:10.396Z,23.3
2024-02-24T00:11:48.930Z,23.4
2024-02-24T00:17:28.058Z,23.6
2024-02-24T00:23:07.943Z,23.6
2024-02-24T00:28:47.177Z,23.3
2024-02-24T00:34:26.263Z,23.7
2024-02-24T00:39:50.009Z,23.6
2024-02-24T00:45:28.649Z,23.3
2024-02-24T00:51:08.029Z,23.6
2024-02-24T00:56:31.511Z,23.7
2024-02-24T01:02:10.293Z,23.6
2024-02-24T01:07:49.556Z,23.4
2024-02-24T01:13:28.518Z,23.7
2024-02-24T01:18:52.449Z,23.6
2024-02-24T01:24:31.750Z,23.3
2024-02-24T01:30:10.274Z,23.6
2024-02-24T01:35:49.518Z,23.7
2024-02-24T01:41:27.966Z,23.6
2024-02-24T01:47:06.265Z,23.3
2024-02-24T01:52:45.716Z,23.8
2024-02-24T01:58:24.216Z,23.7
2024-02-24T02:03:47.883Z,23.4
2024-02-24T02:09:11.596Z,23.6
2024-02-24T02:14:51.957Z,23.8
2024-02-24T02:19:59.985Z,23.6
2024-02-24T02:25:08.157Z,23.3
2024-02-24T02:30:46.622Z,23.7
2024-02-24T02:36:27.990Z,23.8
2024-02-24T02:42:06.351Z,23.7
2024-02-24T02:47:53.455Z,23.4
2024-02-24T02:53:32.973Z,23.8
2024-02-24T02:59:12.087Z,23.8
2024-02-24T03:04:35.905Z,23.6
2024-02-24T03:09:47.286Z,23.5
2024-02-24T03:15:11.075Z,23.8
2024-02-24T03:20:34.886Z,23.8
2024-02-24T03:26:13.329Z,23.6
2024-02-24T03:31:52.022Z,23.5
2024-02-24T03:37:31.514Z,23.8
2024-02-24T03:43:10.113Z,23.8
2024-02-24T03:48:18.403Z,23.4
2024-02-24T03:53:57.618Z,23.6
2024-02-24T03:59:36.619Z,23.8
2024-02-24T04:05:15.190Z,23.7
2024-02-24T04:10:54.861Z,23.4
2024-02-24T04:16:34.196Z,23.7
2024-02-24T04:22:13.658Z,23.8
2024-02-24T04:27:52.215Z,23.7
2024-02-24T04:33:31.091Z,23.3
2024-02-24T04:39:10.715Z,23.7
2024-02-24T04:44:33.984Z,23.6
2024-02-24T04:49:58.103Z,23.6
2024-02-24T04:55:21.222Z,23.4
2024-02-24T05:00:44.493Z,23.8
2024-02-24T05:06:07.941Z,23.7
2024-02-24T05:11:31.993Z,23.6
2024-02-24T05:16:55.211Z,23.4
2024-02-24T05:22:04.154Z,23.8
2024-02-24T05:27:29.751Z,23.7
2024-02-24T05:32:55.571Z,23.6
2024-02-24T05:38:21.140Z,23.3
2024-02-24T05:43:45.910Z,23.4
2024-02-24T05:49:09.645Z,23.3
2024-02-24T05:54:51.206Z,23.2
2024-02-24T06:00:29.483Z,23.1
2024-02-24T06:06:09.071Z,23.1
2024-02-24T06:11:48.402Z,23
2024-02-24T06:17:26.860Z,22.9
2024-02-24T06:23:09.100Z,22.9
2024-02-24T06:28:31.811Z,22.8
2024-02-24T06:34:10.914Z,22.8
2024-02-24T06:39:50.072Z,22.7
2024-02-24T06:45:40.032Z,22.6
2024-02-24T06:51:35.771Z,22.4
2024-02-24T06:57:01.252Z,22.6
2024-02-24T07:02:40.216Z,22.6
2024-02-24T07:08:19.555Z,22.6
2024-02-24T07:13:59.657Z,22.6
2024-02-24T07:19:38.803Z,22.6
2024-02-24T07:25:18.794Z,22.6
2024-02-24T07:31:00.683Z,22.6
2024-02-24T07:36:26.487Z,22.5
2024-02-24T07:41:51.817Z,22.4
2024-02-24T07:47:14.622Z,22.4
2024-02-24T07:52:54.186Z,22.4
2024-02-24T07:58:32.570Z,22
2024-02-24T08:04:12.884Z,22.1
2024-02-24T08:09:52.375Z,22.3
2024-02-24T08:15:17.319Z,22.2
2024-02-24T08:20:41.487Z,22.2
2024-02-24T08:26:19.891Z,22.2
2024-02-24T08:31:58.217Z,22.3
2024-02-24T08:37:38.559Z,22.3
2024-02-24T08:43:01.961Z,22.3
2024-02-24T08:48:25.065Z,22.2
2024-02-24T08:54:17.953Z,22.2
2024-02-24T08:59:56.547Z,22.2
2024-02-24T09:05:37.541Z,21.8
2024-02-24T09:11:17.464Z,21.9
2024-02-24T09:16:56.430Z,21.9
2024-02-24T09:22:20.486Z,22
2024-02-24T09:27:59.451Z,22
2024-02-24T09:33:38.634Z,22.1
2024-02-24T09:39:18.031Z,22.1
2024-02-24T09:44:41.165Z,22.1
2024-02-24T09:50:20.668Z,22.2
2024-02-24T09:56:01.378Z,22.2
2024-02-24T10:01:24.557Z,22.1
2024-02-24T10:07:04.083Z,22.1
2024-02-24T10:12:32.033Z,21.6
2024-02-24T10:17:55.334Z,21.8
2024-02-24T10:23:03.764Z,21.8
2024-02-24T10:28:44.696Z,21.8
2024-02-24T10:34:28.367Z,21.9
2024-02-24T10:40:51.711Z,21.9
2024-02-24T10:46:31.129Z,22
2024-02-24T10:52:11.922Z,22
2024-02-24T10:57:35.055Z,22.1
2024-02-24T11:03:14.424Z,22.1
2024-02-24T11:08:40.019Z,22.1
2024-02-24T11:14:29.227Z,22
2024-02-24T11:20:12.797Z,21.5
2024-02-24T11:25:35.923Z,21.6
2024-02-24T11:31:14.794Z,21.8
2024-02-24T11:36:54.871Z,21.8
2024-02-24T11:42:34.271Z,21.8
2024-02-24T11:48:13.377Z,21.8
2024-02-24T11:53:56.200Z,21.9
2024-02-24T11:59:35.176Z,21.9
2024-02-24T12:05:14.244Z,21.9
2024-02-24T12:10:25.705Z,21.9
2024-02-24T12:16:04.203Z,21.9
2024-02-24T12:21:45.220Z,21.9
2024-02-24T12:27:23.700Z,21.8
2024-02-24T12:33:02.535Z,21.3
2024-02-24T12:38:42.148Z,21.6
2024-02-24T12:44:21.111Z,21.6
2024-02-24T12:50:09.817Z,21.6
2024-02-24T12:55:48.636Z,21.7
2024-02-24T13:01:30.193Z,21.8
2024-02-24T13:07:09.590Z,21.8
2024-02-24T13:12:49.552Z,21.8
2024-02-24T13:18:28.806Z,21.9
2024-02-24T13:23:52.095Z,21.8
2024-02-24T13:29:18.279Z,21.8
2024-02-24T13:34:58.085Z,21.8
2024-02-24T13:40:36.227Z,21.3
2024-02-24T13:46:14.972Z,21.3
2024-02-24T13:51:55.348Z,21.5
2024-02-24T13:57:34.101Z,21.5
2024-02-24T14:03:13.733Z,21.5
2024-02-24T14:08:54.450Z,21.6
2024-02-24T14:14:36.393Z,21.6
2024-02-24T14:20:28.011Z,21.6
2024-02-24T14:26:10.466Z,21.7
2024-02-24T14:32:02.147Z,21.7
2024-02-24T14:37:44.821Z,21.7
2024-02-24T14:43:23.860Z,21.7
2024-02-24T14:49:03.466Z,21.7
2024-02-24T14:54:43.824Z,21.1
2024-02-24T14:59:51.832Z,21.4
2024-02-24T15:05:41.711Z,21.4
2024-02-24T15:11:21.370Z,21.4
2024-02-24T15:17:07.600Z,21.5
2024-02-24T15:22:33.103Z,21.6
2024-02-24T15:28:16.620Z,21.6
2024-02-24T15:33:56.311Z,21.6
2024-02-24T15:39:34.984Z,21.6
2024-02-24T15:45:13.073Z,21.7
2024-02-24T15:50:53.617Z,21.7
2024-02-24T15:56:32.566Z,21.7
2024-02-24T16:02:11.392Z,21.2
2024-02-24T16:07:53.600Z,21.1
2024-02-24T16:13:34.704Z,21.4
2024-02-24T16:19:15.316Z,21.4
2024-02-24T16:24:55.706Z,21.4
2024-02-24T16:30:18.767Z,21.4
2024-02-24T16:36:02.579Z,21.5
2024-02-24T16:41:41.224Z,21.5
2024-02-24T16:47:20.109Z,21.6
2024-02-24T16:53:00.897Z,21.6
2024-02-24T16:58:24.744Z,21.6
2024-02-24T17:04:03.922Z,21.6
2024-02-24T17:09:27.963Z,21.6
2024-02-24T17:20:23.826Z,20.9
2024-02-24T17:26:03.285Z,21.3
2024-02-24T17:31:42.267Z,21.3
2024-02-24T17:37:06.752Z,21.3
2024-02-24T17:42:45.604Z,21.4
2024-02-24T17:48:24.442Z,21.4
2024-02-24T17:54:03.681Z,21.4
2024-02-24T17:59:38.531Z,21.5
2024-02-24T18:05:18.121Z,21.5
2024-02-24T18:10:41.967Z,21.5
2024-02-24T18:16:07.118Z,21.5
2024-02-24T18:21:31.946Z,21.5
2024-02-24T18:32:21.241Z,20.8
2024-02-24T18:38:01.293Z,21.2
2024-02-24T18:43:25.386Z,21.3
2024-02-24T18:49:08.310Z,21.3
2024-02-24T18:54:47.374Z,21.3
2024-02-24T19:00:25.955Z,21.3
2024-02-24T19:05:49.615Z,21.4
2024-02-24T19:11:12.990Z,21.4
2024-02-24T19:16:55.549Z,21.4
2024-02-24T19:22:21.195Z,21.4
2024-02-24T19:28:02.102Z,21.4
2024-02-24T19:33:41.263Z,21.4
2024-02-24T19:39:32.893Z,21.4
2024-02-24T19:45:18.443Z,21.3
2024-02-24T19:50:58.021Z,20.8
2024-02-24T20:02:23.467Z,21.3
2024-02-24T20:08:03.961Z,21.3
2024-02-24T20:13:43.054Z,21.3
2024-02-24T20:19:07.117Z,21.3
2024-02-24T20:24:45.781Z,21.3
2024-02-24T20:30:25.315Z,21.4
2024-02-24T20:36:14.022Z,21.4
2024-02-24T20:41:37.221Z,21.4
2024-02-24T20:47:16.105Z,21.4
2024-02-24T20:52:40.103Z,21.4
2024-02-24T20:58:18.881Z,21
2024-02-24T21:03:59.450Z,20.8
2024-02-24T21:09:40.826Z,21.5
2024-02-24T21:15:20.129Z,21.9
2024-02-24T21:21:03.338Z,22.1
2024-02-24T21:26:42.177Z,22.3
2024-02-24T21:32:24.481Z,22.1
2024-02-24T21:38:05.114Z,22
2024-02-24T21:43:43.153Z,22.4
2024-02-24T21:49:23.352Z,22.4
2024-02-24T21:55:02.298Z,22
2024-02-24T22:00:41.460Z,22.5
2024-02-24T22:06:21.186Z,22.7
2024-02-24T22:12:00.825Z,22.6
2024-02-24T22:17:42.209Z,22.2
2024-02-24T22:23:22.172Z,22.7
2024-02-24T22:29:03.848Z,22.8
2024-02-24T22:34:57.675Z,22.7
2024-02-24T22:40:22.576Z,22.3
2024-02-24T22:46:01.505Z,22.7
2024-02-24T22:51:41.797Z,22.9
2024-02-24T22:57:09.041Z,22.9
2024-02-24T23:02:32.339Z,22.8
2024-02-24T23:07:56.354Z,22.5
2024-02-24T23:13:30.345Z,23
2024-02-24T23:18:54.431Z,23.1
2024-02-24T23:24:33.688Z,23
2024-02-24T23:30:12.360Z,22.9
2024-02-24T23:35:53.851Z,22.6
2024-02-24T23:41:32.665Z,23.1
2024-02-24T23:47:15.860Z,23.1
2024-02-24T23:52:55.325Z,23.1
2024-02-24T23:58:33.813Z,22.9
